createdAt,value
2019-03-09T00:01:17.469Z,5.10
2019-03-09T00:02:52.260Z,4.80
2019-03-09T00:04:27.304Z,4.70
2019-03-09T00:06:02.649Z,4.70
2019-03-09T00:07:37.779Z,4.70
2019-03-09T00:09:12.986Z,4.70
2019-03-09T00:10:47.926Z,4.60
2019-03-09T00:12:23.636Z,4.60
2019-03-09T00:13:59.256Z,4.60
2019-03-09T00:15:34.006Z,4.60
2019-03-09T00:17:09.016Z,4.50
2019-03-09T00:18:44.035Z,4.50
2019-03-09T00:20:18.848Z,4.50
2019-03-09T00:21:53.629Z,4.50
2019-03-09T00:23:45.267Z,4.50
2019-03-09T00:25:26.875Z,4.50
2019-03-09T00:27:09.677Z,4.40
2019-03-09T00:28:51.192Z,4.30
2019-03-09T00:30:34.872Z,4.20
2019-03-09T00:32:12.674Z,4.20
2019-03-09T00:33:47.892Z,4.20
2019-03-09T00:35:22.680Z,4.20
2019-03-09T00:36:57.473Z,4.40
2019-03-09T00:38:32.216Z,4.40
2019-03-09T00:40:08.050Z,4.90
2019-03-09T00:41:43.456Z,5.30
2019-03-09T00:43:18.557Z,5.60
2019-03-09T00:44:53.915Z,5.90
2019-03-09T00:46:29.353Z,6.20
2019-03-09T00:48:04.579Z,6.30
2019-03-09T00:49:39.929Z,6.40
2019-03-09T00:51:14.691Z,6.50
2019-03-09T00:52:49.525Z,6.60
2019-03-09T00:54:24.561Z,6.70
2019-03-09T00:55:59.414Z,6.80
2019-03-09T00:57:34.177Z,6.80
2019-03-09T00:59:09.518Z,6.90
2019-03-09T01:00:44.356Z,6.90
2019-03-09T01:02:19.386Z,7.10
2019-03-09T01:03:54.504Z,7.10
2019-03-09T01:05:29.556Z,7.10
2019-03-09T01:07:04.399Z,7.20
2019-03-09T01:08:39.424Z,7.20
2019-03-09T01:10:16.471Z,7.40
2019-03-09T01:11:51.263Z,7.40
2019-03-09T01:13:26.355Z,7.40
2019-03-09T01:15:01.132Z,7.50
2019-03-09T01:16:36.256Z,7.50
2019-03-09T01:18:11.082Z,7.50
2019-03-09T01:21:20.814Z,7.60
2019-03-09T01:22:55.719Z,7.70
2019-03-09T01:24:31.176Z,7.60
2019-03-09T01:26:06.240Z,7.70
2019-03-09T01:27:41.567Z,7.70
2019-03-09T01:29:16.595Z,7.70
2019-03-09T01:30:51.387Z,7.60
2019-03-09T01:32:26.900Z,7.60
2019-03-09T01:34:02.037Z,7.60
2019-03-09T01:35:36.801Z,7.60
2019-03-09T01:37:11.586Z,7.60
2019-03-09T01:38:46.447Z,7.60
2019-03-09T01:40:21.423Z,7.60
2019-03-09T01:41:56.452Z,7.60
2019-03-09T01:43:31.544Z,7.60
2019-03-09T01:45:08.348Z,7.50
2019-03-09T01:46:43.367Z,7.40
2019-03-09T01:48:18.621Z,7.40
2019-03-09T01:49:53.669Z,7.40
2019-03-09T01:51:28.655Z,7.30
2019-03-09T01:53:03.781Z,7.30
2019-03-09T01:54:38.563Z,7.30
2019-03-09T01:56:13.342Z,7.20
2019-03-09T01:57:48.122Z,7.20
2019-03-09T01:59:23.403Z,7.10
2019-03-09T02:00:58.455Z,7.10
2019-03-09T02:02:33.478Z,7.10
2019-03-09T02:04:08.520Z,7.20
2019-03-09T02:05:43.287Z,7.30
2019-03-09T02:07:18.167Z,7.40
2019-03-09T02:08:53.168Z,7.40
2019-03-09T02:10:27.984Z,7.40
2019-03-09T02:12:02.748Z,7.40
2019-03-09T02:13:37.538Z,7.40
2019-03-09T02:15:13.096Z,7.50
2019-03-09T02:16:48.249Z,7.50
2019-03-09T02:18:23.362Z,7.50
2019-03-09T02:19:58.201Z,7.50
2019-03-09T02:21:32.975Z,7.50
2019-03-09T02:23:07.868Z,7.50
2019-03-09T02:24:42.636Z,7.40
2019-03-09T02:26:17.905Z,7.40
2019-03-09T02:27:52.669Z,7.40
2019-03-09T02:29:27.462Z,7.40
2019-03-09T02:31:02.255Z,7.40
2019-03-09T02:32:37.025Z,7.40
2019-03-09T02:34:11.806Z,7.40
2019-03-09T02:35:46.627Z,7.40
2019-03-09T02:37:21.656Z,7.40
2019-03-09T02:39:01.261Z,7.40
2019-03-09T02:40:36.290Z,7.40
2019-03-09T02:42:11.121Z,7.30
2019-03-09T02:43:45.899Z,7.20
2019-03-09T02:45:21.501Z,7.20
2019-03-09T02:46:56.278Z,7.10
2019-03-09T02:48:31.321Z,7.10
2019-03-09T02:50:07.917Z,7.10
2019-03-09T02:51:42.927Z,7.20
2019-03-09T02:53:18.602Z,7.10
2019-03-09T02:54:53.634Z,7.10
2019-03-09T02:56:28.395Z,7.00
2019-03-09T02:58:03.179Z,7.10
2019-03-09T02:59:38.440Z,7.10
2019-03-09T03:01:21.680Z,7.10
2019-03-09T03:02:59.816Z,7.20
2019-03-09T03:04:34.610Z,7.20
2019-03-09T03:06:09.910Z,7.20
2019-03-09T03:07:44.937Z,7.20
2019-03-09T03:09:19.697Z,7.20
2019-03-09T03:10:54.484Z,7.20
2019-03-09T03:12:29.262Z,7.10
2019-03-09T03:14:04.280Z,7.10
2019-03-09T03:15:39.074Z,7.10
2019-03-09T03:17:13.855Z,7.10
2019-03-09T03:18:48.635Z,7.10
2019-03-09T03:20:23.398Z,7.20
2019-03-09T03:21:58.167Z,7.20
2019-03-09T03:23:32.938Z,7.10
2019-03-09T03:25:07.955Z,7.10
2019-03-09T03:26:42.974Z,7.20
2019-03-09T03:28:18.234Z,7.20
2019-03-09T03:29:53.043Z,7.10
2019-03-09T03:31:27.946Z,7.10
2019-03-09T03:33:02.679Z,7.00
2019-03-09T03:34:37.529Z,6.90
2019-03-09T03:36:12.326Z,6.90
2019-03-09T03:37:47.124Z,6.90
2019-03-09T03:39:22.173Z,6.90
2019-03-09T03:40:57.103Z,6.90
2019-03-09T03:42:32.364Z,6.90
2019-03-09T03:44:07.200Z,6.80
2019-03-09T03:45:42.458Z,6.80
2019-03-09T03:47:18.173Z,6.70
2019-03-09T03:48:52.954Z,6.70
2019-03-09T03:50:27.744Z,6.80
2019-03-09T03:52:02.509Z,6.80
2019-03-09T03:53:37.320Z,6.70
2019-03-09T03:55:12.590Z,6.70
2019-03-09T03:56:47.798Z,6.70
2019-03-09T03:58:23.019Z,6.90
2019-03-09T03:59:57.900Z,7.00
2019-03-09T04:01:33.054Z,7.00
2019-03-09T04:03:07.966Z,7.00
2019-03-09T04:04:42.761Z,7.00
2019-03-09T04:06:17.676Z,7.00
2019-03-09T04:07:52.825Z,6.90
2019-03-09T04:09:27.990Z,6.90
2019-03-09T04:11:05.826Z,6.90
2019-03-09T04:12:40.330Z,6.90
2019-03-09T04:14:15.125Z,6.90
2019-03-09T04:15:50.166Z,6.90
2019-03-09T04:17:24.926Z,6.90
2019-03-09T04:18:59.941Z,7.00
2019-03-09T04:20:34.735Z,7.10
2019-03-09T04:22:09.513Z,7.10
2019-03-09T04:23:44.320Z,7.10
2019-03-09T04:25:19.088Z,7.20
2019-03-09T04:26:54.312Z,7.20
2019-03-09T04:28:29.309Z,7.20
2019-03-09T04:30:04.541Z,7.30
2019-03-09T04:31:40.112Z,7.30
2019-03-09T04:33:15.480Z,7.20
2019-03-09T04:34:50.255Z,7.10
2019-03-09T04:36:25.415Z,7.10
2019-03-09T04:38:00.454Z,7.30
2019-03-09T04:39:35.528Z,7.20
2019-03-09T04:41:10.296Z,7.20
2019-03-09T04:42:45.150Z,7.20
2019-03-09T04:44:20.464Z,7.20
2019-03-09T04:45:55.339Z,7.20
2019-03-09T04:47:30.421Z,7.30
2019-03-09T04:49:05.213Z,7.40
2019-03-09T04:50:39.992Z,7.40
2019-03-09T04:52:15.327Z,7.40
2019-03-09T04:53:50.111Z,7.40
2019-03-09T04:55:24.881Z,7.40
2019-03-09T04:56:59.979Z,7.40
2019-03-09T04:58:34.811Z,7.40
2019-03-09T05:00:10.057Z,7.50
2019-03-09T05:01:44.863Z,7.50
2019-03-09T05:03:19.649Z,7.60
2019-03-09T05:04:54.861Z,7.70
2019-03-09T05:06:29.892Z,7.70
2019-03-09T05:08:29.554Z,7.70
2019-03-09T05:10:42.358Z,7.60
2019-03-09T05:12:17.172Z,7.60
2019-03-09T05:14:04.955Z,7.60
2019-03-09T05:15:39.765Z,7.70
2019-03-09T05:23:32.627Z,7.70
2019-03-09T05:25:08.422Z,7.90
2019-03-09T05:55:44.027Z,7.90
2019-03-09T05:57:18.796Z,8.20
2019-03-09T05:58:53.597Z,8.30
2019-03-09T06:00:28.376Z,8.30
2019-03-09T06:02:03.648Z,8.30
2019-03-09T06:03:38.694Z,8.40
2019-03-09T06:05:40.670Z,8.40
2019-03-09T06:07:15.458Z,8.40
2019-03-09T06:08:51.523Z,8.30
2019-03-09T06:10:26.304Z,8.20
2019-03-09T06:12:01.444Z,8.20
2019-03-09T06:13:36.210Z,8.10
2019-03-09T06:15:11.218Z,8.10
2019-03-09T06:16:46.249Z,8.10
2019-03-09T06:18:21.280Z,8.20
2019-03-09T06:19:56.047Z,8.20
2019-03-09T06:21:30.824Z,8.30
2019-03-09T06:23:05.677Z,8.20
2019-03-09T06:24:40.975Z,8.20
2019-03-09T06:26:15.745Z,8.20
2019-03-09T06:27:50.508Z,8.30
2019-03-09T06:29:25.538Z,8.30
2019-03-09T06:31:00.867Z,8.30
2019-03-09T06:33:22.517Z,8.20
2019-03-09T06:34:57.361Z,8.20
2019-03-09T06:37:08.744Z,8.10
2019-03-09T06:39:00.391Z,8.10
2019-03-09T06:40:35.415Z,8.00
2019-03-09T06:42:47.586Z,8.00
2019-03-09T06:44:22.359Z,8.00
2019-03-09T06:45:57.146Z,8.00
2019-03-09T06:47:32.149Z,8.00
2019-03-09T06:49:07.312Z,8.00
2019-03-09T06:50:42.603Z,7.90
2019-03-09T06:52:17.411Z,7.90
2019-03-09T06:53:52.434Z,7.90
2019-03-09T06:55:27.206Z,7.90
2019-03-09T06:57:01.976Z,7.90
2019-03-09T06:58:37.292Z,7.90
2019-03-09T07:00:37.002Z,7.90
2019-03-09T07:02:12.105Z,7.90
2019-03-09T07:03:47.183Z,7.80
2019-03-09T07:05:21.950Z,7.70
2019-03-09T07:06:57.243Z,7.60
2019-03-09T07:08:32.273Z,7.60
2019-03-09T07:10:07.236Z,7.60
2019-03-09T07:11:42.010Z,7.60
2019-03-09T07:13:16.810Z,7.50
2019-03-09T07:15:25.930Z,7.50
2019-03-09T07:17:00.677Z,7.50
2019-03-09T07:18:39.255Z,7.50
2019-03-09T07:20:14.843Z,7.60
2019-03-09T07:21:50.148Z,7.50
2019-03-09T07:23:24.995Z,7.50
2019-03-09T07:24:59.890Z,7.50
2019-03-09T07:26:34.927Z,7.50
2019-03-09T07:31:20.876Z,7.40
2019-03-09T07:32:55.640Z,7.20
2019-03-09T07:34:30.836Z,7.20
2019-03-09T07:36:06.829Z,7.20
2019-03-09T07:37:42.112Z,7.20
2019-03-09T07:39:16.900Z,7.20
2019-03-09T07:40:51.764Z,7.20
2019-03-09T07:42:26.601Z,7.20
2019-03-09T07:44:01.409Z,7.10
2019-03-09T07:45:36.764Z,7.00
2019-03-09T07:47:11.783Z,7.00
2019-03-09T07:48:46.794Z,7.00
2019-03-09T07:50:21.941Z,6.90
2019-03-09T07:51:57.061Z,6.90
2019-03-09T07:53:32.057Z,6.90
2019-03-09T07:55:09.676Z,6.90
2019-03-09T07:56:45.209Z,6.90
2019-03-09T07:58:19.982Z,6.90
2019-03-09T07:59:54.752Z,6.90
2019-03-09T08:01:29.765Z,7.00
2019-03-09T08:03:04.701Z,7.10
2019-03-09T08:04:39.705Z,7.10
2019-03-09T08:06:14.504Z,7.20
2019-03-09T08:07:49.275Z,7.30
2019-03-09T08:09:24.681Z,7.30
2019-03-09T08:10:59.789Z,7.40
2019-03-09T08:12:34.554Z,7.50
2019-03-09T08:14:09.828Z,7.60
2019-03-09T08:15:44.639Z,7.60
2019-03-09T08:17:19.646Z,7.70
2019-03-09T08:18:54.658Z,7.80
2019-03-09T08:20:29.443Z,7.80
2019-03-09T08:22:04.271Z,7.80
2019-03-09T08:23:39.680Z,7.80
2019-03-09T08:25:15.470Z,7.90
2019-03-09T09:00:30.485Z,8.30
2019-03-09T09:39:56.762Z,12.60
2019-03-09T09:41:31.772Z,14.40
2019-03-09T09:43:06.906Z,14.30
2019-03-09T09:44:42.196Z,14.20
2019-03-09T09:46:17.022Z,14.00
2019-03-09T09:47:51.939Z,14.30
2019-03-09T09:49:26.846Z,14.30
2019-03-09T09:51:01.852Z,14.10
2019-03-09T09:52:39.404Z,14.10
2019-03-09T09:54:15.417Z,14.50
2019-03-09T09:55:50.693Z,15.10
2019-03-09T09:57:26.256Z,15.00
2019-03-09T09:59:01.685Z,14.30
2019-03-09T10:00:36.811Z,13.90
2019-03-09T10:02:11.718Z,13.70
2019-03-09T10:03:47.013Z,14.20
2019-03-09T10:06:57.144Z,14.90
2019-03-09T10:08:32.028Z,15.10
2019-03-09T10:10:09.055Z,14.70
2019-03-09T10:11:44.095Z,15.20
2019-03-09T10:13:19.138Z,15.40
2019-03-09T10:14:54.512Z,15.70
2019-03-09T10:16:30.056Z,15.60
2019-03-09T10:18:05.176Z,15.40
2019-03-09T10:19:40.201Z,15.30
2019-03-09T10:21:15.281Z,15.70
2019-03-09T10:22:50.412Z,15.80
2019-03-09T10:24:25.741Z,16.00
2019-03-09T10:26:00.510Z,16.00
2019-03-09T10:29:10.225Z,15.90
2019-03-09T10:30:45.004Z,16.60
2019-03-09T10:32:19.784Z,16.60
2019-03-09T10:33:55.085Z,16.00
2019-03-09T10:35:30.022Z,15.90
2019-03-09T10:37:05.381Z,15.50
2019-03-09T10:38:40.397Z,15.30
2019-03-09T10:40:15.486Z,15.10
2019-03-09T10:41:50.511Z,15.20
2019-03-09T10:43:25.618Z,14.90
2019-03-09T10:45:00.421Z,14.70
2019-03-09T10:46:35.219Z,14.50
2019-03-09T10:48:10.280Z,14.50
2019-03-09T10:49:45.074Z,14.50
2019-03-09T10:51:19.871Z,14.60
2019-03-09T10:52:54.954Z,14.80
2019-03-09T10:54:35.991Z,15.10
2019-03-09T10:56:06.717Z,14.90
2019-03-09T10:57:41.796Z,14.90
2019-03-09T10:59:17.161Z,14.90
2019-03-09T11:00:52.271Z,14.90
2019-03-09T11:02:27.373Z,14.60
2019-03-09T11:04:02.403Z,14.40
2019-03-09T11:05:37.366Z,14.40
2019-03-09T11:07:12.721Z,14.60
2019-03-09T11:08:47.760Z,14.90
2019-03-09T11:10:22.540Z,15.00
2019-03-09T11:11:57.340Z,15.10
2019-03-09T11:13:32.350Z,15.10
2019-03-09T11:15:08.042Z,15.10
2019-03-09T11:16:43.314Z,15.00
2019-03-09T11:18:18.359Z,15.10
2019-03-09T11:19:53.141Z,15.30
2019-03-09T11:21:28.188Z,15.00
2019-03-09T11:23:03.203Z,14.70
2019-03-09T11:24:38.232Z,14.50
2019-03-09T11:26:13.001Z,14.50
2019-03-09T11:27:47.879Z,14.60
2019-03-09T11:29:22.895Z,14.50
2019-03-09T11:30:57.907Z,14.50
2019-03-09T11:32:32.692Z,14.50
2019-03-09T11:34:07.758Z,14.40
2019-03-09T11:35:42.602Z,14.50
2019-03-09T11:37:17.632Z,14.60
2019-03-09T11:38:52.485Z,14.80
2019-03-09T11:40:27.365Z,14.90
2019-03-09T11:42:02.142Z,14.70
2019-03-09T11:43:36.909Z,14.60
2019-03-09T11:45:12.543Z,14.60
2019-03-09T11:46:47.432Z,14.60
2019-03-09T11:48:22.221Z,14.70
2019-03-09T11:49:56.998Z,14.70
2019-03-09T11:51:32.033Z,14.90
2019-03-09T11:53:07.121Z,15.20
2019-03-09T11:54:42.527Z,15.20
2019-03-09T11:56:17.626Z,14.90
2019-03-09T11:57:52.620Z,14.70
2019-03-09T11:59:33.469Z,14.80
2019-03-09T12:01:15.463Z,15.00
2019-03-09T12:02:50.782Z,15.30
2019-03-09T12:04:33.267Z,15.50
2019-03-09T12:06:20.630Z,15.10
2019-03-09T12:07:56.840Z,15.00
2019-03-09T12:09:58.229Z,14.90
2019-03-09T12:11:34.391Z,14.80
2019-03-09T12:15:06.399Z,14.30
2019-03-09T12:17:00.834Z,13.90
2019-03-09T12:18:35.851Z,13.90
2019-03-09T12:20:14.703Z,14.20
2019-03-09T12:21:49.651Z,14.50
2019-03-09T12:23:26.317Z,14.80
2019-03-09T12:25:01.456Z,14.80
2019-03-09T12:26:36.335Z,14.80
2019-03-09T12:28:11.625Z,14.50
2019-03-09T12:29:48.252Z,14.30
2019-03-09T12:31:23.355Z,14.40
2019-03-09T12:32:58.310Z,14.50
2019-03-09T12:34:33.119Z,14.20
2019-03-09T12:36:08.564Z,13.90
2019-03-09T12:37:43.360Z,13.90
2019-03-09T12:39:18.411Z,13.60
2019-03-09T12:40:53.537Z,13.40
2019-03-09T12:42:28.793Z,13.20
2019-03-09T12:44:04.205Z,12.90
2019-03-09T12:45:39.497Z,12.70
2019-03-09T12:47:14.548Z,12.60
2019-03-09T12:48:49.613Z,12.70
2019-03-09T12:50:24.839Z,12.80
2019-03-09T12:52:00.168Z,13.00
2019-03-09T12:53:34.974Z,13.10
2019-03-09T12:55:09.947Z,13.10
2019-03-09T12:56:44.726Z,12.90
2019-03-09T12:58:19.617Z,13.00
2019-03-09T12:59:54.446Z,13.10
2019-03-09T13:01:29.995Z,13.10
2019-03-09T13:03:04.908Z,13.10
2019-03-09T13:04:40.210Z,13.10
2019-03-09T13:06:15.346Z,13.00
2019-03-09T13:07:50.483Z,12.80
2019-03-09T14:29:52.146Z,12.60
2019-03-09T14:31:26.974Z,11.70
2019-03-09T14:33:02.011Z,11.50
2019-03-09T14:34:36.854Z,11.50
2019-03-09T14:36:11.653Z,11.50
2019-03-09T14:37:47.072Z,11.60
2019-03-09T14:39:22.151Z,11.70
2019-03-09T14:40:57.174Z,11.90
2019-03-09T14:42:32.242Z,11.90
2019-03-09T14:44:07.651Z,12.00
2019-03-09T14:45:42.449Z,12.00
2019-03-09T14:47:17.239Z,11.90
2019-03-09T14:48:52.273Z,11.80
2019-03-09T14:50:27.121Z,11.70
2019-03-09T14:52:01.919Z,11.60
2019-03-09T14:53:36.710Z,11.50
2019-03-09T14:55:11.794Z,11.50
2019-03-09T14:56:46.588Z,11.50
2019-03-09T14:58:21.872Z,11.40
2019-03-09T14:59:56.789Z,11.40
2019-03-09T15:01:31.609Z,11.40
2019-03-09T15:03:06.738Z,11.50
2019-03-09T15:04:41.753Z,11.50
2019-03-09T15:06:16.571Z,11.50
2019-03-09T15:07:51.452Z,11.50
2019-03-09T15:09:26.464Z,11.60
2019-03-09T15:11:01.275Z,11.70
2019-03-09T15:12:36.348Z,11.80
2019-03-09T15:14:11.156Z,11.80
2019-03-09T15:15:46.419Z,11.70
2019-03-09T15:17:21.482Z,11.80
2019-03-09T15:18:56.275Z,11.70
2019-03-09T15:20:31.622Z,11.80
2019-03-09T15:22:06.783Z,11.80
2019-03-09T15:23:41.570Z,11.80
2019-03-09T15:25:16.768Z,11.80
2019-03-09T15:26:51.878Z,11.80
2019-03-09T15:28:26.707Z,11.80
2019-03-09T15:30:01.488Z,11.70
2019-03-09T15:31:36.584Z,11.70
2019-03-09T15:33:11.384Z,11.70
2019-03-09T15:34:46.591Z,11.70
2019-03-09T15:36:21.434Z,11.70
2019-03-09T15:37:56.388Z,11.70
2019-03-09T15:39:31.526Z,11.70
2019-03-09T15:41:06.642Z,11.70
2019-03-09T15:42:41.799Z,11.70
2019-03-09T15:44:16.830Z,11.70
2019-03-09T15:45:51.635Z,11.70
2019-03-09T15:47:26.525Z,11.80
2019-03-09T15:49:01.461Z,11.80
2019-03-09T15:50:36.332Z,11.90
2019-03-09T15:52:11.147Z,12.00
2019-03-09T15:53:46.671Z,12.00
2019-03-09T15:55:22.006Z,12.00
2019-03-09T15:56:57.138Z,12.10
2019-03-09T15:58:31.920Z,12.30
2019-03-09T16:00:11.393Z,12.40
2019-03-09T16:01:46.620Z,12.40
2019-03-09T16:03:21.409Z,12.40
2019-03-09T16:04:56.213Z,12.30
2019-03-09T16:06:31.022Z,12.30
2019-03-09T16:08:06.628Z,12.20
2019-03-09T16:09:41.824Z,12.10
2019-03-09T16:11:16.891Z,12.20
2019-03-09T16:12:51.902Z,12.20
2019-03-09T16:14:26.951Z,12.20
2019-03-09T16:16:02.016Z,12.20
2019-03-09T16:17:36.828Z,12.20
2019-03-09T16:19:11.893Z,12.10
2019-03-09T16:20:46.946Z,12.00
2019-03-09T16:22:22.118Z,11.90
2019-03-09T17:06:36.023Z,11.70
2019-03-09T17:08:10.831Z,10.60
2019-03-09T17:09:45.877Z,10.50
2019-03-09T17:11:20.981Z,10.50
2019-03-09T17:12:56.304Z,10.50
2019-03-09T17:14:31.763Z,10.50
2019-03-09T17:16:06.786Z,10.50
2019-03-09T17:17:41.619Z,10.60
2019-03-09T17:19:16.445Z,10.60
2019-03-09T17:20:51.497Z,10.60
2019-03-09T17:22:32.959Z,10.60
2019-03-09T17:24:03.305Z,10.60
2019-03-09T17:25:38.397Z,10.60
2019-03-09T17:27:13.711Z,10.60
2019-03-09T17:28:49.277Z,10.70
2019-03-09T17:30:24.089Z,10.70
2019-03-09T17:31:59.169Z,10.70
2019-03-09T17:33:34.248Z,10.70
2019-03-09T17:35:09.268Z,10.60
2019-03-09T17:36:44.063Z,10.60
2019-03-09T17:38:19.202Z,10.70
2019-03-09T17:39:54.427Z,10.70
2019-03-09T17:41:29.246Z,10.60
2019-03-09T17:43:04.299Z,10.70
2019-03-09T17:44:39.545Z,10.70
2019-03-09T17:46:14.891Z,10.70
2019-03-09T17:47:49.973Z,10.60
2019-03-09T17:49:24.821Z,10.70
2019-03-09T17:50:59.632Z,10.70
2019-03-09T17:52:34.437Z,10.80
2019-03-09T17:54:09.729Z,10.80
2019-03-09T17:55:45.025Z,10.90
2019-03-09T17:57:20.326Z,10.90
2019-03-09T17:58:55.388Z,10.90
2019-03-09T18:00:41.912Z,10.90
2019-03-09T18:02:08.076Z,10.90
2019-03-09T18:03:43.115Z,10.80
2019-03-09T18:05:19.711Z,10.80
2019-03-09T18:06:54.694Z,10.70
2019-03-09T18:08:29.785Z,10.70
2019-03-09T18:10:06.923Z,10.60
2019-03-09T18:11:42.140Z,10.60
2019-03-09T18:13:17.261Z,10.40
2019-03-09T18:14:52.918Z,10.40
2019-03-09T18:16:27.844Z,10.30
2019-03-09T18:18:02.980Z,10.30
2019-03-09T18:19:37.812Z,10.30
2019-03-09T18:21:13.081Z,10.40
2019-03-09T18:22:47.904Z,10.40
2019-03-09T18:24:22.715Z,10.40
2019-03-09T18:25:57.617Z,10.30
2019-03-09T18:27:32.533Z,10.30
2019-03-09T18:29:07.617Z,10.30
2019-03-09T18:30:42.435Z,10.20
2019-03-09T18:32:17.854Z,10.20
2019-03-09T18:33:52.909Z,10.20
2019-03-09T18:35:27.795Z,10.20
2019-03-09T18:37:02.599Z,10.10
2019-03-09T18:38:37.926Z,10.10
2019-03-09T18:40:13.385Z,10.00
2019-03-09T18:41:48.675Z,10.00
2019-03-09T18:43:23.546Z,10.00
2019-03-09T18:44:59.327Z,10.00
2019-03-09T18:46:34.622Z,10.00
2019-03-09T18:48:09.418Z,10.00
2019-03-09T18:49:44.448Z,9.90
2019-03-09T18:52:53.825Z,9.70
2019-03-09T18:54:28.880Z,9.40
2019-03-09T18:56:03.922Z,9.30
2019-03-09T18:57:38.971Z,9.20
2019-03-09T18:59:14.008Z,9.30
2019-03-09T19:00:49.112Z,9.30
2019-03-09T19:02:23.901Z,9.20
2019-03-09T19:03:59.006Z,9.30
2019-03-09T19:05:34.455Z,9.30
2019-03-09T19:07:09.305Z,9.40
2019-03-09T19:08:44.292Z,9.40
2019-03-09T19:10:19.212Z,9.30
2019-03-09T19:11:54.026Z,9.30
2019-03-09T19:13:28.828Z,9.30
2019-03-09T19:15:04.213Z,9.40
2019-03-09T19:16:39.616Z,9.40
2019-03-09T19:18:14.661Z,9.40
2019-03-09T19:19:50.312Z,9.40
2019-03-09T19:21:25.364Z,9.20
2019-03-09T19:23:00.454Z,9.10
2019-03-09T19:24:35.235Z,9.10
2019-03-09T19:26:10.048Z,9.00
2019-03-09T19:27:44.964Z,8.90
2019-03-09T19:29:21.434Z,8.90
2019-03-09T19:30:56.732Z,8.80
2019-03-09T19:32:32.027Z,8.70
2019-03-09T19:34:06.822Z,8.60
2019-03-09T19:35:41.620Z,8.60
2019-03-09T19:37:16.750Z,8.60
2019-03-09T19:38:51.866Z,8.60
2019-03-09T19:40:27.278Z,8.60
2019-03-09T19:42:02.511Z,8.60
2019-03-09T19:43:37.558Z,8.60
2019-03-09T19:45:13.908Z,8.70
2019-03-09T19:46:49.201Z,8.60
2019-03-09T19:48:24.288Z,8.50
2019-03-09T19:51:35.072Z,8.50
2019-03-09T19:53:10.145Z,8.30
2019-03-09T19:54:44.922Z,8.20
2019-03-09T19:56:20.264Z,8.10
2019-03-09T19:57:55.838Z,8.20
2019-03-09T19:59:31.113Z,8.10
2019-03-09T20:01:06.202Z,8.00
2019-03-09T20:02:41.088Z,8.10
2019-03-09T20:04:15.940Z,8.00
2019-03-09T20:05:50.724Z,8.00
2019-03-09T20:07:26.129Z,8.00
2019-03-09T20:09:01.484Z,8.00
2019-03-09T20:10:36.588Z,8.00
2019-03-09T20:12:11.877Z,8.00
2019-03-09T20:13:46.671Z,8.00
2019-03-09T20:15:21.864Z,8.10
2019-03-09T20:16:57.005Z,8.10
2019-03-09T20:18:31.907Z,8.10
2019-03-09T20:20:07.682Z,8.10
2019-03-09T20:21:43.245Z,8.00
2019-03-09T20:23:18.263Z,8.00
2019-03-09T20:24:53.061Z,8.00
2019-03-09T20:26:27.851Z,8.10
2019-03-09T20:28:02.718Z,8.10
2019-03-09T20:29:37.843Z,8.10
2019-03-09T20:31:12.621Z,8.10
2019-03-09T20:32:47.500Z,8.20
2019-03-09T20:34:22.695Z,8.10
2019-03-09T20:35:58.147Z,8.10
2019-03-09T20:37:33.211Z,8.10
2019-03-09T20:39:08.469Z,8.10
2019-03-09T20:40:43.509Z,8.10
2019-03-09T20:42:18.338Z,8.00
2019-03-09T20:43:53.134Z,8.00
2019-03-09T20:45:28.008Z,8.10
2019-03-09T20:47:02.782Z,8.10
2019-03-09T20:48:37.956Z,8.20
2019-03-09T20:50:14.894Z,8.20
2019-03-09T20:51:49.690Z,8.20
2019-03-09T20:53:24.898Z,8.20
2019-03-09T20:54:59.733Z,8.20
2019-03-09T20:56:34.785Z,8.20
2019-03-09T20:58:09.961Z,8.20
2019-03-09T20:59:44.753Z,8.20
2019-03-09T21:01:19.993Z,8.10
2019-03-09T21:02:54.767Z,8.10
2019-03-09T21:04:29.826Z,8.00
2019-03-09T21:06:04.876Z,8.00
2019-03-09T21:07:40.307Z,8.00
2019-03-09T21:09:15.440Z,8.00
2019-03-09T21:10:50.461Z,8.00
2019-03-09T21:12:25.538Z,7.90
2019-03-09T21:14:00.436Z,8.00
2019-03-09T21:15:35.221Z,7.90
2019-03-09T21:17:10.526Z,7.90
2019-03-09T21:18:45.317Z,7.90
2019-03-09T23:02:52.302Z,7.90
2019-03-09T23:04:27.406Z,6.40
2019-03-09T23:06:02.441Z,6.30
2019-03-09T23:07:37.221Z,6.30
2019-03-09T23:09:12.500Z,6.30
2019-03-09T23:10:47.590Z,6.40
2019-03-09T23:12:22.638Z,6.30
2019-03-09T23:13:57.427Z,6.30
2019-03-09T23:15:32.323Z,6.30
2019-03-09T23:17:07.386Z,6.30
2019-03-09T23:18:42.408Z,6.40
2019-03-09T23:20:17.967Z,6.30
2019-03-09T23:21:53.060Z,6.30
2019-03-09T23:23:27.835Z,6.30
2019-03-09T23:25:02.870Z,6.30
2019-03-09T23:26:37.653Z,6.30
2019-03-09T23:28:12.485Z,6.30
2019-03-09T23:29:47.315Z,6.30
2019-03-09T23:31:22.303Z,6.30
2019-03-09T23:32:57.740Z,6.20
2019-03-09T23:34:32.543Z,6.20
2019-03-09T23:36:07.315Z,6.20
2019-03-09T23:37:42.275Z,6.30
2019-03-09T23:39:17.027Z,6.20
2019-03-09T23:40:51.897Z,6.20
2019-03-09T23:42:26.938Z,6.10
2019-03-09T23:44:02.212Z,6.20
2019-03-09T23:45:37.313Z,6.10
2019-03-09T23:47:12.194Z,6.10
2019-03-09T23:48:47.054Z,6.10
2019-03-09T23:50:22.095Z,6.20
2019-03-09T23:51:56.958Z,6.10
2019-03-09T23:53:32.047Z,6.10
2019-03-09T23:55:07.723Z,6.10
2019-03-09T23:56:42.885Z,6.10
2019-03-09T23:58:17.862Z,6.10
2019-03-09T23:59:53.264Z,6.10
